Time;durP1;ratioP1;P1;durP2;ratioP2;P2;SDS_P1;SDS_P2;PMS_P1;PMS_P2;Temp;Humidity;BMP_temperature;BMP_pressure;BME280_temperature;BME280_humidity;BME280_pressure;Samples;Min_cycle;Max_cycle;Signal;HPM_P1;HPM_P2
2023/12/26 00:01:30;;;;;;;;;;;;;;;16.58;51.54;98688.94;10331040;28;1940;-71
2023/12/26 00:06:26;;;;;;;;;;;;;;;16.56;51.49;98664.50;10331006;28;782;-71
2023/12/26 00:11:22;;;;;;;;;;;;;;;16.53;51.40;98659.41;10331400;28;857;-71
2023/12/26 00:16:18;;;;;;;;;;;;;;;16.49;51.44;98668.41;10330845;28;849;-71
2023/12/26 00:21:14;;;;;;;;;;;;;;;16.48;51.70;98658.81;10331106;28;1901;-71
2023/12/26 00:26:10;;;;;;;;;;;;;;;16.46;51.63;98656.28;10330796;28;818;-71
2023/12/26 00:31:06;;;;;;;;;;;;;;;16.44;51.59;98651.09;10329513;28;849;-71
2023/12/26 00:36:02;;;;;;;;;;;;;;;16.43;51.72;98653.81;10330391;28;1108;-69
2023/12/26 00:40:58;;;;;;;;;;;;;;;16.38;51.51;98651.44;10330260;28;1910;-69
2023/12/26 00:45:54;;;;;;;;;;;;;;;16.37;51.71;98647.13;10329503;28;794;-69
2023/12/26 00:50:49;;;;;;;;;;;;;;;16.37;51.54;98646.25;10329375;28;863;-69
2023/12/26 00:55:45;;;;;;;;;;;;;;;16.35;51.50;98645.50;10329739;28;794;-69
2023/12/26 01:00:41;;;;;;;;;;;;;;;16.30;51.61;98661.53;10328879;28;949;-69
2023/12/26 01:05:37;;;;;;;;;;;;;;;16.31;51.67;98643.97;10328458;28;1954;-69
2023/12/26 01:10:34;;;;;;;;;;;;;;;16.32;51.75;98659.66;10328634;28;905;-69
2023/12/26 01:15:29;;;;;;;;;;;;;;;16.30;51.76;98650.16;10328301;28;1567;-69
2023/12/26 01:20:25;;;;;;;;;;;;;;;16.30;51.71;98656.28;10328188;28;869;-69
2023/12/26 01:25:21;;;;;;;;;;;;;;;16.26;51.83;98664.41;10327864;28;1949;-69
2023/12/26 01:30:19;;;;;;;;;;;;;;;16.26;51.58;98672.28;10327134;28;834;-69
2023/12/26 01:35:15;;;;;;;;;;;;;;;16.24;51.56;98685.50;10327343;28;889;-69
2023/12/26 01:40:11;;;;;;;;;;;;;;;16.26;51.48;98683.66;10327175;28;1243;-69
2023/12/26 01:45:07;;;;;;;;;;;;;;;16.23;51.69;98678.56;10327676;28;1918;-69
2023/12/26 01:50:03;;;;;;;;;;;;;;;16.23;51.54;98678.56;10326968;28;888;-69
2023/12/26 01:54:59;;;;;;;;;;;;;;;16.24;51.49;98687.28;10326803;28;867;-69
2023/12/26 01:59:55;;;;;;;;;;;;;;;16.23;51.49;98699.59;10326520;28;1238;-69
2023/12/26 02:04:51;;;;;;;;;;;;;;;16.19;51.64;98683.16;10326417;28;1890;-69
2023/12/26 02:09:47;;;;;;;;;;;;;;;16.19;51.53;98703.31;10326916;28;954;-69
2023/12/26 02:14:43;;;;;;;;;;;;;;;16.18;51.46;98706.88;10325580;28;877;-69
2023/12/26 02:19:39;;;;;;;;;;;;;;;16.18;51.72;98722.66;10325952;28;869;-69
2023/12/26 02:24:34;;;;;;;;;;;;;;;16.16;51.45;98709.56;10325842;28;1943;-69
2023/12/26 02:29:30;;;;;;;;;;;;;;;16.15;51.55;98707.88;10325771;28;960;-69
2023/12/26 02:34:26;;;;;;;;;;;;;;;16.15;51.44;98720.19;10326289;28;866;-69
2023/12/26 02:39:22;;;;;;;;;;;;;;;16.14;51.53;98721.13;10325728;28;1152;-69
2023/12/26 02:44:18;;;;;;;;;;;;;;;16.13;51.55;98730.78;10324797;28;1910;-69
2023/12/26 02:49:14;;;;;;;;;;;;;;;16.10;51.78;98722.22;10325951;28;841;-69
2023/12/26 02:54:10;;;;;;;;;;;;;;;16.11;51.67;98723.91;10325263;28;793;-69
2023/12/26 02:59:06;;;;;;;;;;;;;;;16.12;51.53;98736.13;10325731;28;861;-69
2023/12/26 03:04:02;;;;;;;;;;;;;;;16.06;51.54;98729.41;10324971;28;1959;-69
2023/12/26 03:08:57;;;;;;;;;;;;;;;16.07;51.46;98731.09;10324885;28;794;-69
2023/12/26 03:13:53;;;;;;;;;;;;;;;16.08;51.56;98727.53;10325533;28;865;-69
2023/12/26 03:18:49;;;;;;;;;;;;;;;16.09;51.41;98744.19;10324761;28;778;-69
2023/12/26 03:23:45;;;;;;;;;;;;;;;16.08;51.49;98731.94;10324615;28;1898;-69
2023/12/26 03:28:41;;;;;;;;;;;;;;;16.06;51.49;98728.53;10329281;28;893;-69
2023/12/26 03:33:37;;;;;;;;;;;;;;;16.06;51.56;98739.06;10331740;28;992;-69
2023/12/26 03:38:33;;;;;;;;;;;;;;;16.05;51.38;98734.75;10332867;28;1273;-69
2023/12/26 03:43:29;;;;;;;;;;;;;;;16.04;51.62;98747.03;10331853;28;1965;-69
2023/12/26 03:48:25;;;;;;;;;;;;;;;16.03;51.43;98762.88;10331933;28;791;-69
2023/12/26 03:53:20;;;;;;;;;;;;;;;15.98;51.44;98742.09;10331476;28;934;-69
2023/12/26 03:58:16;;;;;;;;;;;;;;;15.98;51.62;98756.09;10330744;28;996;-69
2023/12/26 04:03:12;;;;;;;;;;;;;;;15.96;51.51;98765.00;10331091;28;1897;-69
2023/12/26 04:08:08;;;;;;;;;;;;;;;15.97;51.56;98769.31;10330906;28;979;-69
2023/12/26 04:13:04;;;;;;;;;;;;;;;15.94;51.44;98775.56;10331450;28;866;-69
2023/12/26 04:18:02;;;;;;;;;;;;;;;15.94;51.40;98778.19;10330062;28;830;-69
2023/12/26 04:22:58;;;;;;;;;;;;;;;15.94;51.64;98782.59;10330413;28;1905;-69
2023/12/26 04:27:54;;;;;;;;;;;;;;;15.95;51.50;98776.41;10330307;28;794;-69
2023/12/26 04:32:50;;;;;;;;;;;;;;;15.94;51.71;98783.44;10330074;28;845;-69
2023/12/26 04:37:46;;;;;;;;;;;;;;;15.92;51.48;98777.41;10329408;28;1326;-69
2023/12/26 04:42:42;;;;;;;;;;;;;;;15.94;51.36;98778.19;10330700;28;1914;-71
2023/12/26 04:47:38;;;;;;;;;;;;;;;15.92;51.59;98787.09;10330070;28;897;-72
2023/12/26 04:52:34;;;;;;;;;;;;;;;15.97;51.40;98790.34;10329478;28;786;-73
2023/12/26 04:57:30;;;;;;;;;;;;;;;16.08;51.47;98789.78;10329067;28;997;-71
2023/12/26 05:02:26;;;;;;;;;;;;;;;16.19;51.07;98798.81;10328884;28;1898;-70
2023/12/26 05:07:22;;;;;;;;;;;;;;;16.23;51.01;98810.03;10328715;28;810;-70
2023/12/26 05:12:18;;;;;;;;;;;;;;;16.28;50.86;98828.19;10326761;28;1108;-69
2023/12/26 05:17:14;;;;;;;;;;;;;;;16.30;50.96;98829.81;10327346;28;864;-69
2023/12/26 05:22:10;;;;;;;;;;;;;;;16.40;50.70;98844.19;10326679;28;1951;-74
2023/12/26 05:27:06;;;;;;;;;;;;;;;16.52;50.50;98857.63;10327749;28;777;-70
2023/12/26 05:32:02;;;;;;;;;;;;;;;16.56;50.39;98865.28;10327065;28;774;-70
2023/12/26 05:36:58;;;;;;;;;;;;;;;16.64;50.29;98871.00;10327007;28;1312;-69
2023/12/26 05:41:54;;;;;;;;;;;;;;;16.70;50.15;98869.81;10327139;28;1910;-72
2023/12/26 05:46:51;;;;;;;;;;;;;;;16.76;50.24;98893.16;10326878;28;1050;-73
2023/12/26 05:51:47;;;;;;;;;;;;;;;16.85;50.24;98903.25;10325384;28;770;-72
2023/12/26 05:56:46;;;;;;;;;;;;;;;16.88;50.01;98917.19;10326554;28;810;-72
2023/12/26 06:01:41;;;;;;;;;;;;;;;16.88;50.22;98919.84;10325823;28;1910;-71
2023/12/26 06:06:37;;;;;;;;;;;;;;;16.90;50.06;98944.25;10325518;28;1089;-73
2023/12/26 06:11:34;;;;;;;;;;;;;;;16.90;50.35;98944.25;10325583;28;781;-71
2023/12/26 06:16:30;;;;;;;;;;;;;;;16.86;50.53;98947.06;10325945;28;929;-76
2023/12/26 06:21:26;;;;;;;;;;;;;;;16.83;50.56;98957.75;10325427;28;1965;-72
2023/12/26 06:26:22;;;;;;;;;;;;;;;16.84;50.78;98969.97;10325477;28;949;-71
2023/12/26 06:31:18;;;;;;;;;;;;;;;16.84;50.68;98979.66;10325339;28;865;-72
2023/12/26 06:36:14;;;;;;;;;;;;;;;16.82;50.70;98985.03;10325343;28;1236;-71
2023/12/26 06:41:10;;;;;;;;;;;;;;;16.84;50.58;98991.03;10325058;28;1913;-73
2023/12/26 06:46:06;;;;;;;;;;;;;;;16.85;50.60;99005.91;10324821;28;929;-72
2023/12/26 06:51:02;;;;;;;;;;;;;;;16.87;50.49;99008.44;10324872;28;774;-75
2023/12/26 06:55:58;;;;;;;;;;;;;;;16.91;50.55;99007.38;10324642;28;960;-75
2023/12/26 07:00:54;;;;;;;;;;;;;;;16.94;50.45;99006.38;10326711;28;769;-72
2023/12/26 07:05:50;;;;;;;;;;;;;;;16.96;50.30;99036.94;10333495;28;1902;-75
2023/12/26 07:10:46;;;;;;;;;;;;;;;16.99;50.40;99051.72;10332724;28;1255;-72
2023/12/26 07:15:42;;;;;;;;;;;;;;;16.98;50.21;99055.31;10332404;28;897;-68
2023/12/26 07:20:38;;;;;;;;;;;;;;;17.03;50.12;99058.56;10333474;28;830;-72
2023/12/26 07:25:34;;;;;;;;;;;;;;;17.03;50.21;99085.72;10332651;28;2012;-72
2023/12/26 07:30:30;;;;;;;;;;;;;;;17.04;50.12;99092.69;10332992;28;885;-73
2023/12/26 07:35:28;;;;;;;;;;;;;;;17.12;50.05;99094.94;10331897;28;1152;-72
2023/12/26 07:40:24;;;;;;;;;;;;;;;17.09;50.17;99106.47;10331887;28;857;-77
2023/12/26 07:45:23;;;;;;;;;;;;;;;17.09;50.22;99113.53;10332667;28;1910;-72
2023/12/26 07:50:19;;;;;;;;;;;;;;;17.13;50.00;99135.28;10330840;28;912;-74
2023/12/26 07:55:15;;;;;;;;;;;;;;;17.13;50.11;99136.13;10331247;28;750;-76
2023/12/26 08:00:10;;;;;;;;;;;;;;;17.12;50.20;99146.75;10331579;28;826;-72
2023/12/26 08:05:06;;;;;;;;;;;;;;;17.16;50.16;99172.88;10331509;28;1893;-72
2023/12/26 08:10:02;;;;;;;;;;;;;;;17.16;49.88;99178.13;10330756;28;782;-72
2023/12/26 08:14:58;;;;;;;;;;;;;;;17.16;50.01;99180.78;10329535;28;872;-72
2023/12/26 08:19:54;;;;;;;;;;;;;;;17.19;49.98;99191.16;10330910;28;905;-71
2023/12/26 08:24:50;;;;;;;;;;;;;;;17.18;50.06;99197.31;10328650;28;1890;-71
2023/12/26 08:29:46;;;;;;;;;;;;;;;17.18;49.96;99192.06;10329970;28;781;-72
2023/12/26 08:34:44;;;;;;;;;;;;;;;17.22;49.76;99208.56;10329547;28;849;-71
2023/12/26 08:39:40;;;;;;;;;;;;;;;17.20;49.93;99211.28;10329591;28;1187;-74
2023/12/26 08:44:36;;;;;;;;;;;;;;;17.19;49.67;99220.13;10329221;28;1963;-74
2023/12/26 08:49:31;;;;;;;;;;;;;;;17.23;49.91;99233.97;10329321;28;919;-78
2023/12/26 08:54:27;;;;;;;;;;;;;;;17.24;49.63;99254.97;10328861;28;758;-71
2023/12/26 08:59:23;;;;;;;;;;;;;;;17.21;49.70;99263.03;10329054;28;774;-71
2023/12/26 09:04:19;;;;;;;;;;;;;;;17.17;49.81;99273.78;10328838;28;1965;-71
2023/12/26 09:09:17;;;;;;;;;;;;;;;17.11;50.00;99255.63;10328694;28;906;-72
2023/12/26 09:14:13;;;;;;;;;;;;;;;17.05;49.95;99265.53;10328608;28;878;-72
2023/12/26 09:19:09;;;;;;;;;;;;;;;17.05;50.30;99273.44;10328266;28;844;-71
2023/12/26 09:24:05;;;;;;;;;;;;;;;17.06;50.01;99298.84;10326412;28;1894;-72
2023/12/26 09:29:01;;;;;;;;;;;;;;;17.08;50.04;99304.03;10328394;28;942;-71
2023/12/26 09:33:57;;;;;;;;;;;;;;;17.12;49.71;99300.34;10327691;28;1052;-71
2023/12/26 09:38:53;;;;;;;;;;;;;;;17.11;49.84;99319.72;10324237;28;1307;-74
2023/12/26 09:43:49;;;;;;;;;;;;;;;17.11;49.95;99330.25;10326660;28;1910;-75
2023/12/26 09:48:45;;;;;;;;;;;;;;;17.09;49.68;99337.34;10326977;28;798;-71
2023/12/26 09:53:41;;;;;;;;;;;;;;;17.12;49.71;99355.63;10325765;28;1342;-72
2023/12/26 09:58:42;;;;;;;;;;;;;;;17.14;49.63;99356.44;10325672;28;1407;-73
2023/12/26 10:03:38;;;;;;;;;;;;;;;17.19;49.67;99370.22;10324902;28;1889;-72
2023/12/26 10:08:34;;;;;;;;;;;;;;;17.33;49.48;99360.81;10325315;28;1419;-73
2023/12/26 10:13:30;;;;;;;;;;;;;;;17.42;49.50;99363.00;10325099;28;1471;-75
2023/12/26 10:18:27;;;;;;;;;;;;;;;17.46;49.63;99377.75;10325790;28;1490;-74
2023/12/26 10:23:23;;;;;;;;;;;;;;;17.46;50.02;99375.97;10325212;28;1898;-75
2023/12/26 10:28:19;;;;;;;;;;;;;;;17.54;49.97;99380.88;10325222;28;1434;-75
2023/12/26 10:33:15;;;;;;;;;;;;;;;17.51;50.17;99381.03;10324280;28;1506;-75
2023/12/26 10:38:11;;;;;;;;;;;;;;;17.53;50.28;99395.00;10325199;28;1402;-75
2023/12/26 10:43:07;;;;;;;;;;;;;;;17.60;50.20;99388.47;10324974;28;1913;-72
2023/12/26 10:48:03;;;;;;;;;;;;;;;17.64;50.09;99397.94;10324422;28;1490;-79
2023/12/26 10:53:05;;;;;;;;;;;;;;;17.68;50.07;99403.91;10324787;28;1559;-78
2023/12/26 10:58:16;;;;;;;;;;;;;;;17.70;50.07;99413.47;10324608;28;1383;-87
2023/12/26 13:56:15;;;;;;;;;;;;;;;17.90;48.67;99599.75;10325996;28;668;-66
2023/12/26 14:01:11;;;;;;;;;;;;;;;17.94;48.42;99603.09;10326201;28;790;-66
2023/12/26 14:06:07;;;;;;;;;;;;;;;17.98;48.26;99604.66;10326679;28;1886;-66
2023/12/26 14:11:03;;;;;;;;;;;;;;;17.86;48.67;99613.97;10325034;28;855;-66
2023/12/26 14:15:59;;;;;;;;;;;;;;;17.84;48.55;99614.97;10326194;28;802;-66
2023/12/26 14:20:55;;;;;;;;;;;;;;;17.81;48.68;99615.97;10325461;28;751;-66
2023/12/26 14:25:50;;;;;;;;;;;;;;;17.76;48.49;99628.47;10325698;28;1897;-67
2023/12/26 14:30:46;;;;;;;;;;;;;;;17.64;48.91;99629.91;10325172;28;814;-70
2023/12/26 14:35:42;;;;;;;;;;;;;;;17.54;48.92;99628.59;10325254;28;1436;-70
2023/12/26 14:40:38;;;;;;;;;;;;;;;17.52;48.98;99640.97;10325868;28;766;-70
2023/12/26 14:45:34;;;;;;;;;;;;;;;17.52;48.65;99640.97;10325521;28;1918;-70
2023/12/26 14:50:30;;;;;;;;;;;;;;;17.52;48.63;99648.88;10325517;28;832;-71
2023/12/26 14:55:26;;;;;;;;;;;;;;;17.50;48.64;99653.34;10325124;28;1061;-69
2023/12/26 15:00:22;;;;;;;;;;;;;;;17.50;48.53;99659.50;10323212;28;947;-70
2023/12/26 15:05:18;;;;;;;;;;;;;;;17.53;48.34;99662.00;10324275;28;1910;-71
2023/12/26 15:10:14;;;;;;;;;;;;;;;17.44;48.64;99672.06;10323509;28;957;-70
2023/12/26 15:15:10;;;;;;;;;;;;;;;17.40;48.73;99667.88;10324625;28;952;-70
2023/12/26 15:20:06;;;;;;;;;;;;;;;17.39;48.80;99677.53;10324447;28;1560;-70
2023/12/26 15:25:02;;;;;;;;;;;;;;;17.34;48.79;99691.81;10331169;28;1894;-70
2023/12/26 15:29:57;;;;;;;;;;;;;;;17.28;48.96;99695.56;10332757;28;862;-70
2023/12/26 15:34:53;;;;;;;;;;;;;;;17.27;48.75;99707.91;10332351;28;1011;-70
2023/12/26 15:39:49;;;;;;;;;;;;;;;17.25;49.14;99720.28;10332050;28;1440;-70
2023/12/26 15:44:45;;;;;;;;;;;;;;;17.28;48.96;99720.13;10332539;28;1913;-70
2023/12/26 15:49:41;;;;;;;;;;;;;;;17.29;48.79;99734.16;10332090;28;867;-70
2023/12/26 15:54:40;;;;;;;;;;;;;;;17.27;48.68;99736.88;10331656;28;917;-70
2023/12/26 15:59:36;;;;;;;;;;;;;;;17.31;48.63;99742.88;10331660;28;889;-70
2023/12/26 16:04:32;;;;;;;;;;;;;;;17.30;48.82;99742.00;10331565;28;1897;-70
2023/12/26 16:09:28;;;;;;;;;;;;;;;17.31;48.66;99751.63;10331259;28;826;-70
2023/12/26 16:14:26;;;;;;;;;;;;;;;17.34;48.64;99765.59;10330760;28;825;-70
2023/12/26 16:19:22;;;;;;;;;;;;;;;17.36;48.96;99774.28;10330494;28;857;-70
2023/12/26 16:24:18;;;;;;;;;;;;;;;17.36;48.66;99795.38;10329956;28;1955;-70
2023/12/26 16:29:18;;;;;;;;;;;;;;;17.35;48.76;99791.03;10329495;28;924;-72
2023/12/26 16:34:13;;;;;;;;;;;;;;;17.35;48.91;99807.69;10328862;28;900;-68
2023/12/26 16:39:09;;;;;;;;;;;;;;;17.35;48.78;99810.34;10329462;28;1666;-71
2023/12/26 16:44:09;;;;;;;;;;;;;;;17.34;48.92;99821.78;10329344;28;1914;-70
2023/12/26 16:49:05;;;;;;;;;;;;;;;17.36;48.80;99830.47;10329230;28;996;-71
2023/12/26 16:54:01;;;;;;;;;;;;;;;17.39;48.85;99847.94;10329258;28;848;-70
2023/12/26 16:58:57;;;;;;;;;;;;;;;17.37;48.99;99849.78;10327132;28;1163;-70
2023/12/26 17:03:53;;;;;;;;;;;;;;;17.39;48.96;99861.97;10327830;28;1894;-70
2023/12/26 17:08:49;;;;;;;;;;;;;;;17.41;48.96;99865.41;10328684;28;798;-70
2023/12/26 17:13:44;;;;;;;;;;;;;;;17.37;48.93;99877.00;10328012;28;904;-70
2023/12/26 17:18:40;;;;;;;;;;;;;;;17.42;49.00;99879.44;10328240;28;852;-70
2023/12/26 17:23:37;;;;;;;;;;;;;;;17.49;49.11;99886.19;10327988;28;1894;-74
2023/12/26 17:28:33;;;;;;;;;;;;;;;17.46;49.40;99886.31;10328649;28;853;-74
2023/12/26 17:33:29;;;;;;;;;;;;;;;17.46;49.29;99899.47;10328225;28;851;-74
2023/12/26 17:38:25;;;;;;;;;;;;;;;17.46;49.40;99904.75;10326552;28;1496;-77
2023/12/26 17:43:21;;;;;;;;;;;;;;;17.45;49.42;99909.19;10327799;28;1906;-75
2023/12/26 17:48:17;;;;;;;;;;;;;;;17.48;49.40;99924.00;10327339;28;866;-75
2023/12/26 17:53:13;;;;;;;;;;;;;;;17.49;49.36;99926.56;10326859;28;801;-75
2023/12/26 17:58:08;;;;;;;;;;;;;;;17.49;49.37;99934.47;10326794;28;883;-75
2023/12/26 18:03:04;;;;;;;;;;;;;;;17.50;49.26;99938.84;10326178;28;1943;-85
2023/12/26 18:08:00;;;;;;;;;;;;;;;17.51;49.26;99937.91;10326317;28;986;-86
2023/12/26 18:12:57;;;;;;;;;;;;;;;17.52;49.36;99944.03;10326320;28;806;-85
2023/12/26 18:17:54;;;;;;;;;;;;;;;17.56;49.40;99927.19;10325959;28;973;-74
2023/12/26 18:22:50;;;;;;;;;;;;;;;17.53;49.58;99929.97;10325737;28;1957;-74
2023/12/26 18:27:45;;;;;;;;;;;;;;;17.52;49.53;99926.44;10325221;28;847;-75
2023/12/26 18:32:41;;;;;;;;;;;;;;;17.59;49.39;99936.75;10326768;28;842;-74
2023/12/26 18:37:37;;;;;;;;;;;;;;;17.60;49.19;99941.94;10325025;28;1206;-72
2023/12/26 18:42:33;;;;;;;;;;;;;;;17.58;49.28;99945.56;10326132;28;1965;-72
2023/12/26 18:47:29;;;;;;;;;;;;;;;17.56;49.41;99948.28;10325281;28;785;-72
2023/12/26 18:52:27;;;;;;;;;;;;;;;17.55;49.30;99951.81;10325135;28;996;-72
2023/12/26 18:57:23;;;;;;;;;;;;;;;17.55;49.27;99958.88;10325314;28;1108;-72
2023/12/26 19:02:19;;;;;;;;;;;;;;;17.58;49.13;99959.63;10324846;28;1943;-73
2023/12/26 19:07:16;;;;;;;;;;;;;;;17.57;48.93;99962.31;10325547;28;895;-72
2023/12/26 19:12:12;;;;;;;;;;;;;;;17.56;49.21;99973.78;10325334;28;861;-73
2023/12/26 19:17:08;;;;;;;;;;;;;;;17.60;49.09;99985.91;10324487;28;861;-72
2023/12/26 19:22:04;;;;;;;;;;;;;;;17.59;49.13;99995.59;10324685;28;1996;-72
2023/12/26 19:27:00;;;;;;;;;;;;;;;17.58;49.14;99998.28;10324330;28;935;-73
2023/12/26 19:31:56;;;;;;;;;;;;;;;17.60;48.91;100015.75;10325362;28;865;-73
2023/12/26 19:36:52;;;;;;;;;;;;;;;17.70;48.89;100027.66;10323843;28;1460;-83
2023/12/26 19:41:48;;;;;;;;;;;;;;;17.61;48.98;100035.09;10324366;28;1910;-82
2023/12/26 19:46:44;;;;;;;;;;;;;;;17.55;49.23;100040.56;10324580;28;767;-83
2023/12/26 19:51:41;;;;;;;;;;;;;;;17.51;49.16;100042.47;10324262;28;748;-82
2023/12/26 19:56:36;;;;;;;;;;;;;;;17.50;49.18;100054.81;10324407;28;837;-82
2023/12/26 20:01:33;;;;;;;;;;;;;;;17.54;48.91;100058.16;10324902;28;862;-81
2023/12/26 20:06:28;;;;;;;;;;;;;;;17.55;48.82;100056.38;10323449;28;1894;-81
2023/12/26 20:11:24;;;;;;;;;;;;;;;17.54;48.96;100063.44;10326881;28;1120;-83
2023/12/26 20:16:20;;;;;;;;;;;;;;;17.55;48.84;100065.16;10329924;28;790;-84
2023/12/26 20:21:16;;;;;;;;;;;;;;;17.55;48.86;100072.19;10330258;28;1047;-84
2023/12/26 20:26:14;;;;;;;;;;;;;;;17.52;48.82;100075.81;10330412;28;1918;-84
2023/12/26 20:31:10;;;;;;;;;;;;;;;17.55;48.77;100080.09;10330317;28;853;-83
2023/12/26 20:36:06;;;;;;;;;;;;;;;17.57;48.66;100084.41;10330359;28;1267;-83
2023/12/26 20:41:02;;;;;;;;;;;;;;;17.52;48.80;100095.13;10330048;28;826;-84
2023/12/26 20:46:02;;;;;;;;;;;;;;;17.50;48.68;100107.50;10330134;28;1913;-83
2023/12/26 20:50:58;;;;;;;;;;;;;;;17.47;48.74;100110.22;10329067;28;763;-83
2023/12/26 20:55:54;;;;;;;;;;;;;;;17.47;48.71;100110.22;10329231;28;912;-83
2023/12/26 21:00:50;;;;;;;;;;;;;;;17.46;48.83;100116.44;10329335;28;936;-85
2023/12/26 21:05:46;;;;;;;;;;;;;;;17.46;48.83;100115.56;10328807;28;1956;-83
2023/12/26 21:10:42;;;;;;;;;;;;;;;17.45;48.85;100124.41;10328329;28;862;-84
2023/12/26 21:15:38;;;;;;;;;;;;;;;17.45;48.64;100127.03;10328394;28;912;-83
2023/12/26 21:20:34;;;;;;;;;;;;;;;17.45;48.59;100125.25;10327456;28;865;-83
2023/12/26 21:25:29;;;;;;;;;;;;;;;17.43;48.57;100132.34;10328089;28;1964;-82
2023/12/26 21:30:25;;;;;;;;;;;;;;;17.42;48.71;100132.41;10327550;28;825;-83
2023/12/26 21:35:22;;;;;;;;;;;;;;;17.43;48.65;100140.25;10327451;28;1277;-84
2023/12/26 21:40:18;;;;;;;;;;;;;;;17.44;48.60;100143.75;10327551;28;870;-85
2023/12/26 21:45:14;;;;;;;;;;;;;;;17.44;48.71;100149.03;10327149;28;1968;-86
2023/12/26 21:50:10;;;;;;;;;;;;;;;17.41;48.72;100150.00;10326750;28;855;-84
2023/12/26 21:55:05;;;;;;;;;;;;;;;17.39;48.62;100153.59;10327317;28;834;-85
2023/12/26 22:00:04;;;;;;;;;;;;;;;17.40;48.50;100160.59;10326424;28;797;-84
2023/12/26 22:05:00;;;;;;;;;;;;;;;17.39;48.63;100157.09;10326190;28;1897;-85
2023/12/26 22:09:56;;;;;;;;;;;;;;;17.38;48.68;100150.09;10325891;28;1156;-82
2023/12/26 22:14:52;;;;;;;;;;;;;;;17.35;48.67;100152.00;10325444;28;762;-84
2023/12/26 22:19:48;;;;;;;;;;;;;;;17.32;48.75;100150.31;10325721;28;890;-84
2023/12/26 22:24:43;;;;;;;;;;;;;;;17.30;48.76;100170.59;10326399;28;1947;-86
2023/12/26 22:29:39;;;;;;;;;;;;;;;17.27;48.88;100173.34;10326714;28;888;-84
2023/12/26 22:34:35;;;;;;;;;;;;;;;17.28;48.83;100175.03;10325549;28;932;-83
2023/12/26 22:39:31;;;;;;;;;;;;;;;17.29;48.80;100182.03;10325643;28;1141;-82
2023/12/26 22:44:27;;;;;;;;;;;;;;;17.26;48.81;100175.09;10324571;28;1973;-85
2023/12/26 22:49:23;;;;;;;;;;;;;;;17.25;48.79;100191.81;10325740;28;865;-84
2023/12/26 22:54:19;;;;;;;;;;;;;;;17.26;48.64;100183.00;10325564;28;813;-84
2023/12/26 22:59:15;;;;;;;;;;;;;;;17.26;48.56;100183.00;10324947;28;874;-84
2023/12/26 23:04:11;;;;;;;;;;;;;;;17.26;48.56;100195.31;10324678;28;1894;-84
2023/12/26 23:09:09;;;;;;;;;;;;;;;17.23;48.63;100175.19;10325376;28;810;-84
2023/12/26 23:14:06;;;;;;;;;;;;;;;17.21;48.79;100194.59;10325074;28;871;-86
2023/12/26 23:19:01;;;;;;;;;;;;;;;17.23;48.84;100191.00;10324471;28;957;-84
2023/12/26 23:23:57;;;;;;;;;;;;;;;17.25;48.58;100194.44;10324203;28;1898;-85
2023/12/26 23:28:53;;;;;;;;;;;;;;;17.23;48.80;100193.63;10324302;28;979;-83
2023/12/26 23:33:49;;;;;;;;;;;;;;;17.20;48.72;100195.53;10324093;28;957;-84
2023/12/26 23:38:45;;;;;;;;;;;;;;;17.20;48.74;100199.00;10323261;28;1223;-83
2023/12/26 23:43:41;;;;;;;;;;;;;;;17.22;48.83;100213.00;10327038;28;1972;-82
2023/12/26 23:48:37;;;;;;;;;;;;;;;17.23;48.83;100213.84;10331637;28;884;-83
2023/12/26 23:53:33;;;;;;;;;;;;;;;17.20;48.87;100230.63;10332053;28;908;-84
2023/12/26 23:58:28;;;;;;;;;;;;;;;17.18;48.74;100221.91;10331355;28;770;-82
